Time;durP1;ratioP1;P1;durP2;ratioP2;P2;SDS_P1;SDS_P2;PMS_P1;PMS_P2;Temp;Humidity;BMP_temperature;BMP_pressure;BME280_temperature;BME280_humidity;BME280_pressure;Samples;Min_cycle;Max_cycle;Signal;HPM_P1;HPM_P2
2021/05/15 00:00:32;;;;;;;13.82;8.77;;;10.70;93.00;;;;;;4734486;30;20044;-82
2021/05/15 00:02:59;;;;;;;11.23;8.00;;;10.60;93.40;;;;;;4746086;30;20043;-78
2021/05/15 00:05:26;;;;;;;11.95;7.38;;;10.60;93.20;;;;;;4729973;30;20040;-78
2021/05/15 00:07:53;;;;;;;9.52;6.35;;;10.50;93.20;;;;;;4721504;30;20044;-78
2021/05/15 00:10:20;;;;;;;11.35;7.00;;;10.50;93.20;;;;;;4731169;30;20052;-79
2021/05/15 00:12:47;;;;;;;11.45;6.97;;;10.50;93.20;;;;;;4730490;30;20055;-80
2021/05/15 00:15:15;;;;;;;10.23;7.30;;;10.40;93.20;;;;;;4714884;30;20067;-79
2021/05/15 00:17:41;;;;;;;10.68;7.20;;;10.40;93.60;;;;;;4714628;30;20039;-78
2021/05/15 00:20:12;;;;;;;11.25;9.55;;;10.40;93.40;;;;;;4717238;30;20527;-78
2021/05/15 00:22:39;;;;;;;16.48;11.20;;;10.40;93.70;;;;;;4715979;30;20132;-78
2021/05/15 00:25:08;;;;;;;15.40;11.15;;;10.50;93.70;;;;;;4712778;30;20044;-77
2021/05/15 00:27:35;;;;;;;14.07;10.57;;;10.50;93.90;;;;;;4729243;30;20531;-77
2021/05/15 00:30:01;;;;;;;18.40;13.07;;;10.50;94.00;;;;;;4730283;30;20052;-77
2021/05/15 00:32:28;;;;;;;19.02;13.02;;;10.60;94.10;;;;;;4742969;30;20056;-78
2021/05/15 00:34:54;;;;;;;18.58;12.98;;;10.60;94.20;;;;;;4729221;30;20071;-78
2021/05/15 00:37:21;;;;;;;15.45;11.57;;;10.60;94.20;;;;;;4717478;30;20488;-79
2021/05/15 00:39:47;;;;;;;16.48;11.60;;;10.60;94.10;;;;;;4719434;30;20048;-78
2021/05/15 00:42:14;;;;;;;15.93;11.90;;;10.70;94.40;;;;;;4728400;30;20044;-79
2021/05/15 00:44:46;;;;;;;19.35;14.13;;;10.70;94.00;;;;;;4743926;30;20916;-79
2021/05/15 00:47:15;;;;;;;16.88;10.73;;;10.80;94.00;;;;;;4714762;30;20408;-78
2021/05/15 00:49:43;;;;;;;20.00;13.43;;;10.80;94.00;;;;;;4743888;30;20104;-78
2021/05/15 00:52:11;;;;;;;17.15;13.18;;;10.80;94.10;;;;;;4728887;30;20044;-78
2021/05/15 00:54:40;;;;;;;14.25;11.75;;;10.80;94.10;;;;;;4729117;30;20067;-81
2021/05/15 00:57:09;;;;;;;14.07;11.48;;;10.80;94.00;;;;;;4728854;30;20052;-77
2021/05/15 00:59:37;;;;;;;18.40;13.60;;;10.80;94.10;;;;;;4743566;30;20060;-79
2021/05/15 01:02:11;;;;;;;19.90;13.98;;;10.80;94.10;;;;;;4713646;30;20039;-78
2021/05/15 01:04:39;;;;;;;20.13;13.43;;;10.70;94.10;;;;;;4728198;30;21135;-77
2021/05/15 01:07:10;;;;;;;17.55;13.00;;;10.70;94.10;;;;;;4728708;30;20044;-81
2021/05/15 01:09:37;;;;;;;18.70;13.20;;;10.70;94.10;;;;;;4717700;30;20055;-82
2021/05/15 01:12:06;;;;;;;16.05;11.73;;;10.70;94.20;;;;;;4731823;30;20302;-78
2021/05/15 01:14:33;;;;;;;18.80;13.65;;;10.70;94.20;;;;;;4729915;30;20524;-79
2021/05/15 01:17:01;;;;;;;19.48;13.48;;;10.70;94.20;;;;;;4729331;30;20429;-81
2021/05/15 01:19:27;;;;;;;27.70;16.80;;;10.70;94.20;;;;;;4722265;30;20044;-80
2021/05/15 01:21:54;;;;;;;23.40;14.98;;;10.60;94.30;;;;;;4731226;30;20071;-80
2021/05/15 01:24:21;;;;;;;17.05;14.48;;;10.50;94.50;;;;;;4706888;30;20508;-79
2021/05/15 01:26:47;;;;;;;20.15;14.60;;;10.50;94.60;;;;;;4743994;30;20060;-80
2021/05/15 01:29:14;;;;;;;20.58;15.13;;;10.40;94.70;;;;;;4719725;30;20068;-79
2021/05/15 01:31:40;;;;;;;26.40;17.02;;;10.30;95.00;;;;;;4714874;30;20512;-78
2021/05/15 01:34:07;;;;;;;17.70;14.50;;;10.30;95.10;;;;;;4729300;30;20064;-78
2021/05/15 01:36:42;;;;;;;19.23;13.00;;;10.30;95.20;;;;;;4727915;30;20048;-78
2021/05/15 01:39:14;;;;;;;23.00;17.35;;;10.30;95.20;;;;;;4743484;30;20484;-81
2021/05/15 01:41:42;;;;;;;20.65;14.20;;;10.30;95.20;;;;;;4720008;30;20047;-77
2021/05/15 01:44:09;;;;;;;18.20;12.75;;;10.40;95.20;;;;;;4747282;30;20053;-80
2021/05/15 01:46:36;;;;;;;12.95;10.75;;;10.40;95.10;;;;;;4720214;30;20063;-79
2021/05/15 01:49:03;;;;;;;14.50;11.10;;;10.40;94.90;;;;;;4745367;30;20052;-79
2021/05/15 01:51:30;;;;;;;17.08;13.35;;;10.50;94.90;;;;;;4731964;30;20052;-78
2021/05/15 01:53:58;;;;;;;16.45;12.65;;;10.50;94.90;;;;;;4717963;30;20060;-78
2021/05/15 01:56:26;;;;;;;18.17;13.07;;;10.50;94.90;;;;;;4709183;30;20055;-77
2021/05/15 01:58:54;;;;;;;25.48;17.67;;;10.50;94.90;;;;;;4745942;30;20049;-78
2021/05/15 02:01:21;;;;;;;19.55;14.85;;;10.50;95.00;;;;;;4732304;30;20515;-78
2021/05/15 02:03:49;;;;;;;18.60;13.90;;;10.40;95.00;;;;;;4731150;30;20048;-79
2021/05/15 02:06:16;;;;;;;18.50;12.35;;;10.40;95.10;;;;;;4733293;30;20036;-80
2021/05/15 02:08:45;;;;;;;20.40;14.18;;;10.30;95.10;;;;;;4748213;30;20899;-80
2021/05/15 02:11:15;;;;;;;16.00;11.75;;;10.30;95.10;;;;;;4719840;30;20039;-79
2021/05/15 02:13:48;;;;;;;16.35;11.80;;;10.30;95.10;;;;;;4717921;30;20060;-78
2021/05/15 02:16:16;;;;;;;18.88;14.50;;;10.20;95.10;;;;;;4730221;30;20385;-81
2021/05/15 02:18:43;;;;;;;16.17;12.40;;;10.20;95.10;;;;;;4733089;30;20438;-79
2021/05/15 02:21:10;;;;;;;21.52;13.13;;;10.20;95.20;;;;;;4726112;30;20067;-82
2021/05/15 02:23:37;;;;;;;19.27;12.77;;;10.20;95.30;;;;;;4726872;30;20047;-83
2021/05/15 02:26:04;;;;;;;14.43;11.63;;;10.20;95.30;;;;;;4741834;30;20043;-83
2021/05/15 02:28:31;;;;;;;14.32;11.38;;;10.20;95.30;;;;;;4705159;30;20051;-82
2021/05/15 02:30:57;;;;;;;15.88;12.30;;;10.20;95.30;;;;;;4744695;30;20068;-81
2021/05/15 02:33:24;;;;;;;14.38;12.02;;;10.20;95.50;;;;;;4717086;30;20060;-83
2021/05/15 02:35:51;;;;;;;16.85;12.25;;;10.10;95.30;;;;;;4729580;30;20044;-81
2021/05/15 02:38:19;;;;;;;15.68;11.70;;;10.10;95.40;;;;;;4717801;30;20047;-81
2021/05/15 02:40:47;;;;;;;17.23;12.43;;;10.00;95.70;;;;;;4734293;30;20069;-82
2021/05/15 02:43:15;;;;;;;15.27;11.38;;;10.00;95.50;;;;;;4745480;30;20052;-79
2021/05/15 02:45:42;;;;;;;14.73;10.48;;;9.90;95.40;;;;;;4729354;30;20397;-81
2021/05/15 02:48:09;;;;;;;14.35;10.75;;;9.90;95.70;;;;;;4731174;30;20416;-80
2021/05/15 02:50:35;;;;;;;20.48;15.10;;;9.90;95.50;;;;;;4717668;30;20067;-81
2021/05/15 02:53:03;;;;;;;22.45;15.75;;;10.00;95.60;;;;;;4718074;30;20071;-81
2021/05/15 02:55:29;;;;;;;21.65;13.63;;;9.90;95.70;;;;;;4728583;30;20067;-81
2021/05/15 02:57:56;;;;;;;18.30;13.48;;;10.00;95.80;;;;;;4745962;30;20040;-81
2021/05/15 03:00:28;;;;;;;17.27;13.43;;;9.90;95.70;;;;;;4702859;30;20527;-81
2021/05/15 03:02:56;;;;;;;22.83;16.80;;;9.90;95.70;;;;;;4715780;30;20044;-80
2021/05/15 03:05:24;;;;;;;20.98;14.52;;;9.90;96.10;;;;;;4743691;30;20404;-80
2021/05/15 03:07:52;;;;;;;15.75;13.18;;;9.90;95.90;;;;;;4731176;30;20121;-81
2021/05/15 03:10:23;;;;;;;20.23;14.90;;;9.80;95.90;;;;;;4729638;30;20040;-80
2021/05/15 03:12:54;;;;;;;27.38;18.83;;;9.90;96.00;;;;;;4730365;30;20036;-80
2021/05/15 03:15:23;;;;;;;17.02;13.43;;;9.90;96.00;;;;;;4728959;30;20068;-79
2021/05/15 03:17:51;;;;;;;19.35;14.10;;;9.90;96.00;;;;;;4730008;30;20051;-79
2021/05/15 03:20:20;;;;;;;17.98;12.45;;;9.90;96.00;;;;;;4744036;30;20052;-80
2021/05/15 03:22:47;;;;;;;23.05;15.23;;;9.90;95.90;;;;;;4744508;30;20048;-80
2021/05/15 03:25:15;;;;;;;19.67;14.57;;;10.00;95.90;;;;;;4748587;30;20393;-80
2021/05/15 03:27:42;;;;;;;24.27;17.13;;;10.00;95.90;;;;;;4715671;30;20047;-80
2021/05/15 03:30:10;;;;;;;20.30;14.88;;;10.00;95.90;;;;;;4715991;30;20040;-81
2021/05/15 03:32:40;;;;;;;20.30;15.60;;;10.00;95.80;;;;;;4730737;30;20047;-80
2021/05/15 03:35:08;;;;;;;24.67;15.98;;;10.00;95.80;;;;;;4720936;30;20072;-80
2021/05/15 03:37:34;;;;;;;20.83;13.25;;;10.00;95.80;;;;;;4719626;30;20096;-80
2021/05/15 03:40:01;;;;;;;20.23;13.43;;;10.00;95.90;;;;;;4729014;30;20047;-80
2021/05/15 03:42:27;;;;;;;20.13;14.23;;;10.00;95.80;;;;;;4746071;30;20048;-80
2021/05/15 03:44:53;;;;;;;19.05;12.93;;;10.10;95.80;;;;;;4742473;30;20048;-80
2021/05/15 03:47:20;;;;;;;21.77;13.38;;;10.00;95.80;;;;;;4743094;30;20051;-80
2021/05/15 03:49:46;;;;;;;18.80;13.63;;;10.00;95.80;;;;;;4721526;30;20067;-80
2021/05/15 03:52:13;;;;;;;20.75;13.48;;;10.00;95.80;;;;;;4702791;30;20056;-80
2021/05/15 03:54:39;;;;;;;17.55;13.63;;;10.10;95.90;;;;;;4728025;30;20063;-80
2021/05/15 03:57:06;;;;;;;19.88;13.20;;;10.10;95.80;;;;;;4743477;30;20060;-79
2021/05/15 03:59:33;;;;;;;18.70;12.55;;;10.10;95.80;;;;;;4730735;30;20047;-78
2021/05/15 04:01:59;;;;;;;16.33;12.77;;;10.10;95.80;;;;;;4729832;30;20069;-79
2021/05/15 04:04:26;;;;;;;20.77;14.60;;;10.10;95.70;;;;;;4727894;30;20056;-79
2021/05/15 04:06:52;;;;;;;17.52;13.65;;;10.10;96.00;;;;;;4728854;30;20052;-80
2021/05/15 04:09:19;;;;;;;17.65;13.48;;;10.20;95.80;;;;;;4743415;30;20083;-79
2021/05/15 04:11:46;;;;;;;26.95;15.63;;;10.20;95.80;;;;;;4743809;30;20571;-80
2021/05/15 04:15:18;;;;;;;20.10;15.00;;;10.30;95.80;;;;;;4703044;30;20044;-80
2021/05/15 04:19:34;;;;;;;17.60;13.60;;;10.30;95.80;;;;;;4728764;30;20044;-80
2021/05/15 04:22:03;;;;;;;19.25;13.50;;;10.40;95.80;;;;;;4728570;30;20298;-79
2021/05/15 04:24:30;;;;;;;23.58;15.23;;;10.40;95.80;;;;;;4727393;30;20052;-79
2021/05/15 04:26:59;;;;;;;19.02;13.88;;;10.40;95.70;;;;;;4729609;30;20055;-79
2021/05/15 04:29:26;;;;;;;19.40;14.32;;;10.50;95.70;;;;;;4727888;30;20061;-79
2021/05/15 04:31:56;;;;;;;20.48;14.32;;;10.50;95.60;;;;;;4743387;30;20052;-80
2021/05/15 04:34:25;;;;;;;20.60;14.70;;;10.60;95.60;;;;;;4727796;30;20044;-80
2021/05/15 04:36:52;;;;;;;19.13;14.98;;;10.60;95.60;;;;;;4712766;30;20036;-79
2021/05/15 04:39:18;;;;;;;17.00;13.90;;;10.60;95.90;;;;;;4743823;30;20051;-80
2021/05/15 04:41:45;;;;;;;19.13;13.40;;;10.60;95.60;;;;;;4728412;30;20058;-79
2021/05/15 04:44:11;;;;;;;18.95;15.23;;;10.70;95.60;;;;;;4726586;30;20059;-78
2021/05/15 04:46:38;;;;;;;23.25;16.58;;;10.70;95.60;;;;;;4699997;30;20496;-77
2021/05/15 04:49:04;;;;;;;20.25;14.52;;;10.70;95.80;;;;;;4743872;30;20052;-78
2021/05/15 04:51:31;;;;;;;18.38;14.40;;;10.70;95.60;;;;;;4743524;30;20044;-78
2021/05/15 04:53:57;;;;;;;19.73;15.30;;;10.70;95.60;;;;;;4707947;30;20055;-78
2021/05/15 04:56:25;;;;;;;18.25;14.07;;;10.80;95.60;;;;;;4743051;30;20044;-78
2021/05/15 04:58:51;;;;;;;22.77;14.70;;;10.80;95.50;;;;;;4712715;30;20504;-78
2021/05/15 05:01:18;;;;;;;18.92;13.73;;;10.90;95.50;;;;;;4726423;30;20041;-78
2021/05/15 05:03:44;;;;;;;23.27;14.88;;;10.90;95.40;;;;;;4713936;30;21185;-78
2021/05/15 05:06:11;;;;;;;19.45;14.40;;;11.00;95.70;;;;;;4713819;30;20044;-78
2021/05/15 05:08:37;;;;;;;20.77;15.25;;;11.00;95.40;;;;;;4728674;30;20051;-77
2021/05/15 05:11:04;;;;;;;18.88;14.65;;;11.10;95.30;;;;;;4727382;30;20112;-78
2021/05/15 05:13:30;;;;;;;20.52;15.82;;;11.20;95.30;;;;;;4742744;30;20069;-81
2021/05/15 05:15:57;;;;;;;20.25;15.02;;;11.20;95.20;;;;;;4727587;30;20068;-81
2021/05/15 05:18:24;;;;;;;21.60;15.95;;;11.20;95.50;;;;;;4732385;30;20055;-80
2021/05/15 05:20:51;;;;;;;22.05;15.50;;;11.20;95.20;;;;;;4732450;30;20037;-80
2021/05/15 05:23:18;;;;;;;21.58;15.05;;;11.20;95.20;;;;;;4727183;30;20130;-80
2021/05/15 05:25:45;;;;;;;21.77;14.68;;;11.20;95.20;;;;;;4728476;30;20052;-79
2021/05/15 05:28:14;;;;;;;17.40;13.40;;;11.20;95.20;;;;;;4716957;30;20048;-80
2021/05/15 05:30:42;;;;;;;17.67;13.30;;;11.20;95.20;;;;;;4743334;30;20048;-80
2021/05/15 05:33:08;;;;;;;17.90;13.15;;;11.30;95.20;;;;;;4728119;30;20082;-80
2021/05/15 05:35:36;;;;;;;18.63;13.70;;;11.30;95.10;;;;;;4741822;30;20512;-80
2021/05/15 05:38:03;;;;;;;20.75;14.50;;;11.40;95.10;;;;;;4725952;30;20530;-80
2021/05/15 05:40:29;;;;;;;21.98;15.38;;;11.40;95.10;;;;;;4743457;30;20044;-81
2021/05/15 05:42:56;;;;;;;21.10;15.93;;;11.50;95.10;;;;;;4727904;30;20040;-80
2021/05/15 05:45:22;;;;;;;19.17;14.93;;;11.60;95.10;;;;;;4706241;30;20048;-81
2021/05/15 05:47:49;;;;;;;22.85;15.52;;;11.60;95.00;;;;;;4729559;30;20517;-81
2021/05/15 05:50:15;;;;;;;25.13;18.08;;;11.70;95.00;;;;;;4713102;30;20409;-81
2021/05/15 05:52:42;;;;;;;23.38;17.70;;;11.80;95.00;;;;;;4729535;30;20055;-80
2021/05/15 05:55:09;;;;;;;20.33;17.27;;;11.80;94.90;;;;;;4727101;30;20080;-80
2021/05/15 05:57:35;;;;;;;21.48;16.25;;;11.90;95.00;;;;;;4727012;30;20048;-80
2021/05/15 06:00:04;;;;;;;20.23;16.60;;;11.90;94.90;;;;;;4725503;30;20048;-80
2021/05/15 06:02:33;;;;;;;20.08;16.38;;;12.00;94.80;;;;;;4723096;30;20047;-80
2021/05/15 06:04:59;;;;;;;20.77;16.10;;;12.00;94.80;;;;;;4727362;30;20515;-80
2021/05/15 06:07:26;;;;;;;24.20;18.33;;;12.10;95.10;;;;;;4727404;30;20048;-81
2021/05/15 06:09:52;;;;;;;29.52;19.77;;;12.10;94.70;;;;;;4739797;30;20055;-80
2021/05/15 06:12:19;;;;;;;24.15;17.73;;;12.10;94.70;;;;;;4743162;30;20051;-80
2021/05/15 06:14:46;;;;;;;26.98;20.02;;;12.10;94.70;;;;;;4743529;30;20051;-80
2021/05/15 06:17:12;;;;;;;25.83;19.45;;;12.20;94.80;;;;;;4731589;30;20124;-79
2021/05/15 06:19:40;;;;;;;23.50;17.55;;;12.20;94.70;;;;;;4742961;30;20052;-80
2021/05/15 06:22:07;;;;;;;22.48;17.67;;;12.30;94.80;;;;;;4740358;30;20056;-79
2021/05/15 06:24:39;;;;;;;33.45;22.88;;;12.30;94.70;;;;;;4742570;30;20037;-79
2021/05/15 06:27:05;;;;;;;26.77;20.50;;;12.40;94.70;;;;;;4742312;30;20051;-78
2021/05/15 06:29:33;;;;;;;28.95;19.60;;;12.40;94.60;;;;;;4730730;30;20090;-78
2021/05/15 06:32:00;;;;;;;24.60;19.63;;;12.50;94.60;;;;;;4719090;30;20059;-79
2021/05/15 06:34:26;;;;;;;27.05;21.33;;;12.50;94.60;;;;;;4708013;30;20068;-79
2021/05/15 06:36:53;;;;;;;23.45;17.27;;;12.60;94.60;;;;;;4717347;30;20051;-79
2021/05/15 06:39:19;;;;;;;28.67;21.73;;;12.60;94.60;;;;;;4746254;30;20067;-79
2021/05/15 06:41:46;;;;;;;28.88;20.45;;;12.70;94.60;;;;;;4746740;30;20052;-79
2021/05/15 06:44:13;;;;;;;26.05;19.63;;;12.80;94.60;;;;;;4720678;30;20037;-78
2021/05/15 06:46:40;;;;;;;23.73;17.30;;;12.80;94.60;;;;;;4745917;30;20047;-77
2021/05/15 06:49:07;;;;;;;22.83;18.73;;;12.80;94.60;;;;;;4727423;30;20044;-77
2021/05/15 06:51:34;;;;;;;26.02;20.38;;;12.80;94.60;;;;;;4727420;30;20389;-77
2021/05/15 06:54:00;;;;;;;28.13;19.50;;;12.90;94.60;;;;;;4746412;30;20382;-77
2021/05/15 06:56:27;;;;;;;26.05;19.13;;;12.80;94.60;;;;;;4747048;30;20075;-77
2021/05/15 06:58:54;;;;;;;26.83;19.75;;;12.90;94.60;;;;;;4705896;30;20056;-77
2021/05/15 07:01:21;;;;;;;33.25;25.45;;;12.90;94.60;;;;;;4718091;30;20044;-77
2021/05/15 07:03:47;;;;;;;38.95;27.42;;;13.00;94.50;;;;;;4718775;30;20051;-79
2021/05/15 07:06:14;;;;;;;41.25;29.48;;;13.00;94.40;;;;;;4746935;30;20048;-80
2021/05/15 07:08:40;;;;;;;39.10;29.70;;;13.00;94.20;;;;;;4746674;30;20056;-80
2021/05/15 07:11:07;;;;;;;42.03;30.80;;;13.00;94.10;;;;;;4746449;30;20064;-79
2021/05/15 07:13:33;;;;;;;39.20;29.67;;;13.00;94.30;;;;;;4716630;30;20044;-79
2021/05/15 07:16:00;;;;;;;46.90;31.25;;;13.10;94.00;;;;;;4746596;30;20071;-80
2021/05/15 07:18:26;;;;;;;43.45;31.80;;;13.10;93.80;;;;;;4731544;30;20044;-79
2021/05/15 07:20:53;;;;;;;38.35;26.15;;;13.20;93.80;;;;;;4715018;30;20055;-76
2021/05/15 07:23:19;;;;;;;47.08;32.45;;;13.30;93.70;;;;;;4744592;30;20883;-76
2021/05/15 07:25:46;;;;;;;43.75;31.17;;;13.40;93.50;;;;;;4745133;30;20044;-77
2021/05/15 07:28:13;;;;;;;44.70;32.13;;;13.50;93.30;;;;;;4729503;30;20051;-77
2021/05/15 07:30:40;;;;;;;50.08;35.90;;;13.70;93.20;;;;;;4744083;30;20056;-77
2021/05/15 07:33:07;;;;;;;42.72;31.20;;;13.80;92.80;;;;;;4730211;30;20405;-77
2021/05/15 07:35:33;;;;;;;40.30;32.13;;;13.90;92.70;;;;;;4731851;30;20143;-77
2021/05/15 07:38:00;;;;;;;38.00;28.83;;;14.10;92.40;;;;;;4730921;30;20048;-77
2021/05/15 07:40:27;;;;;;;38.72;28.38;;;14.20;92.10;;;;;;4716697;30;20061;-77
2021/05/15 07:42:53;;;;;;;34.90;28.17;;;14.30;91.80;;;;;;4743955;30;20697;-77
2021/05/15 07:45:20;;;;;;;36.55;27.35;;;14.30;91.70;;;;;;4715618;30;20051;-77
2021/05/15 07:47:46;;;;;;;35.00;26.65;;;14.40;91.50;;;;;;4741060;30;20051;-77
2021/05/15 07:50:13;;;;;;;32.17;24.40;;;14.40;91.30;;;;;;4728979;30;20044;-77
2021/05/15 07:52:40;;;;;;;34.15;25.73;;;14.50;91.20;;;;;;4745504;30;20048;-77
2021/05/15 07:55:08;;;;;;;30.83;24.05;;;14.70;91.20;;;;;;4743420;30;20565;-78
2021/05/15 07:57:35;;;;;;;36.88;28.15;;;14.90;91.00;;;;;;4729448;30;20040;-77
2021/05/15 08:00:04;;;;;;;31.90;23.75;;;15.00;90.50;;;;;;4744300;30;20420;-77
2021/05/15 08:02:41;;;;;;;30.00;23.20;;;15.00;90.30;;;;;;4745136;30;20043;-77
2021/05/15 08:05:10;;;;;;;32.35;25.55;;;15.20;90.10;;;;;;4729266;30;20055;-77
2021/05/15 08:07:37;;;;;;;31.38;24.42;;;15.30;89.10;;;;;;4729978;30;20059;-77
2021/05/15 08:10:06;;;;;;;33.38;23.75;;;15.30;88.40;;;;;;4744484;30;20064;-77
2021/05/15 08:12:33;;;;;;;32.55;23.00;;;15.20;88.00;;;;;;4744267;30;20056;-77
2021/05/15 08:14:59;;;;;;;28.70;22.30;;;15.10;87.80;;;;;;4717276;30;20085;-77
2021/05/15 08:17:27;;;;;;;27.00;21.73;;;15.10;87.70;;;;;;4713789;30;20430;-77
2021/05/15 08:19:53;;;;;;;26.85;20.15;;;15.00;87.60;;;;;;4728993;30;20095;-79
2021/05/15 08:22:20;;;;;;;26.73;21.23;;;14.90;87.70;;;;;;4727951;30;20052;-82
2021/05/15 08:24:47;;;;;;;28.55;20.92;;;14.90;88.20;;;;;;4743932;30;20059;-78
2021/05/15 08:27:13;;;;;;;26.20;20.65;;;14.90;87.80;;;;;;4729321;30;20055;-79
2021/05/15 08:29:40;;;;;;;27.45;22.58;;;14.90;87.60;;;;;;4729632;30;20067;-80
2021/05/15 08:32:06;;;;;;;27.30;20.85;;;14.90;87.20;;;;;;4704558;30;20801;-78
2021/05/15 08:34:33;;;;;;;26.77;20.40;;;14.90;87.20;;;;;;4743787;30;20079;-77
2021/05/15 08:36:59;;;;;;;24.63;18.50;;;14.90;87.10;;;;;;4744300;30;20055;-78
2021/05/15 08:39:26;;;;;;;24.73;19.38;;;15.00;86.80;;;;;;4700099;30;20055;-79
2021/05/15 08:41:52;;;;;;;30.92;23.58;;;15.20;86.50;;;;;;4743871;30;20063;-79
2021/05/15 08:44:24;;;;;;;28.60;23.58;;;15.50;85.60;;;;;;4729650;30;20063;-78
2021/05/15 08:46:52;;;;;;;24.73;19.80;;;15.90;84.60;;;;;;4745541;30;20051;-79
2021/05/15 08:49:22;;;;;;;26.00;21.58;;;16.10;84.00;;;;;;4745995;30;20067;-79
2021/05/15 08:51:53;;;;;;;32.83;24.25;;;16.20;82.00;;;;;;4731221;30;20248;-79
2021/05/15 08:54:22;;;;;;;26.05;21.92;;;16.50;81.80;;;;;;4745923;30;20047;-80
2021/05/15 08:56:50;;;;;;;25.88;21.20;;;16.70;81.20;;;;;;4721930;30;20064;-80
2021/05/15 08:59:17;;;;;;;25.45;21.63;;;16.90;80.70;;;;;;4730222;30;20048;-84
2021/05/15 09:01:45;;;;;;;23.75;18.90;;;17.20;79.80;;;;;;4744311;30;20044;-79
2021/05/15 09:04:12;;;;;;;21.80;18.92;;;17.40;79.30;;;;;;4731051;30;20041;-79
2021/05/15 09:06:42;;;;;;;22.77;18.50;;;17.50;78.20;;;;;;4727536;30;20400;-80
2021/05/15 09:09:09;;;;;;;25.40;21.00;;;17.70;76.50;;;;;;4740584;30;20060;-79
2021/05/15 09:11:35;;;;;;;27.05;20.95;;;17.70;75.60;;;;;;4711405;30;20051;-81
2021/05/15 09:14:02;;;;;;;29.45;22.23;;;17.40;75.00;;;;;;4745832;30;20048;-80
2021/05/15 09:16:28;;;;;;;24.30;20.67;;;17.10;75.90;;;;;;4705643;30;20051;-81
2021/05/15 09:19:04;;;;;;;24.00;19.15;;;16.90;76.50;;;;;;4729231;30;20060;-81
2021/05/15 09:21:31;;;;;;;25.10;19.35;;;16.70;76.70;;;;;;4743477;30;20651;-81
2021/05/15 09:24:04;;;;;;;33.85;22.77;;;16.60;77.10;;;;;;4744139;30;20044;-81
2021/05/15 09:26:31;;;;;;;25.67;19.33;;;16.50;77.50;;;;;;4729284;30;20044;-81
2021/05/15 09:28:58;;;;;;;23.38;20.45;;;16.50;77.50;;;;;;4729473;30;20044;-82
2021/05/15 09:31:27;;;;;;;23.88;18.52;;;16.50;77.40;;;;;;4744240;30;20048;-78
2021/05/15 09:34:05;;;;;;;23.85;18.17;;;16.50;77.40;;;;;;4744457;30;20060;-78
2021/05/15 09:36:38;;;;;;;22.13;17.60;;;16.50;77.40;;;;;;4742785;30;20048;-80
2021/05/15 09:39:16;;;;;;;21.50;17.05;;;16.50;77.30;;;;;;4743444;30;20504;-80
2021/05/15 09:41:46;;;;;;;24.35;19.75;;;16.40;77.20;;;;;;4744064;30;20063;-81
2021/05/15 09:44:16;;;;;;;23.42;19.33;;;16.40;77.20;;;;;;4728268;30;20439;-77
2021/05/15 09:46:44;;;;;;;21.58;17.92;;;16.30;77.20;;;;;;4725873;30;20047;-80
2021/05/15 09:49:11;;;;;;;24.02;18.05;;;16.40;77.40;;;;;;4718014;30;20059;-79
2021/05/15 09:51:40;;;;;;;25.95;20.75;;;16.50;77.20;;;;;;4727786;30;20420;-79
2021/05/15 09:54:25;;;;;;;18.98;15.93;;;16.60;76.90;;;;;;4728700;30;20172;-79
2021/05/15 09:57:02;;;;;;;28.13;20.75;;;16.70;76.70;;;;;;4727436;30;20151;-79
2021/05/15 09:59:51;;;;;;;24.60;20.77;;;16.90;76.00;;;;;;4742881;30;20062;-79
2021/05/15 10:02:19;;;;;;;23.25;19.00;;;17.20;75.10;;;;;;4714650;30;20421;-80
2021/05/15 10:04:48;;;;;;;22.42;18.67;;;17.30;74.60;;;;;;4717976;30;20056;-81
2021/05/15 10:07:15;;;;;;;19.55;16.40;;;17.30;74.20;;;;;;4732173;30;20048;-84
2021/05/15 10:09:41;;;;;;;16.90;13.68;;;17.50;74.60;;;;;;4718009;30;20059;-79
2021/05/15 10:12:08;;;;;;;17.00;15.23;;;17.80;74.70;;;;;;4722384;30;20052;-84
2021/05/15 10:14:34;;;;;;;17.23;14.82;;;18.10;74.00;;;;;;4746706;30;20141;-83
2021/05/15 10:17:01;;;;;;;17.58;14.48;;;18.40;72.80;;;;;;4732818;30;20044;-80
2021/05/15 10:19:29;;;;;;;20.98;16.63;;;18.60;72.00;;;;;;4748498;30;20048;-80
2021/05/15 10:21:57;;;;;;;17.05;14.38;;;18.70;70.80;;;;;;4725627;30;20049;-81
2021/05/15 10:24:35;;;;;;;15.98;13.77;;;18.90;70.80;;;;;;4730608;30;20052;-82
2021/05/15 10:27:04;;;;;;;18.55;16.55;;;19.10;70.70;;;;;;4735423;30;20048;-82
2021/05/15 10:29:57;;;;;;;18.08;15.57;;;19.30;68.70;;;;;;4724996;30;20051;-82
2021/05/15 10:32:26;;;;;;;22.50;18.95;;;19.60;68.60;;;;;;4727958;30;20064;-82
2021/05/15 10:35:09;;;;;;;20.40;16.58;;;19.70;66.60;;;;;;4747064;30;20068;-82
2021/05/15 10:37:38;;;;;;;15.10;12.90;;;19.60;66.20;;;;;;4721535;30;20400;-81
2021/05/15 10:40:18;;;;;;;19.67;16.70;;;19.60;67.00;;;;;;4744805;30;20523;-81
2021/05/15 10:42:56;;;;;;;18.42;14.73;;;19.80;65.00;;;;;;4734172;30;20052;-81
2021/05/15 10:45:52;;;;;;;15.35;13.50;;;19.80;65.50;;;;;;4747566;30;20424;-82
2021/05/15 10:48:23;;;;;;;16.13;12.52;;;20.10;65.30;;;;;;4731765;30;20068;-82
2021/05/15 10:50:58;;;;;;;12.77;11.43;;;20.30;64.50;;;;;;4731133;30;20382;-79
2021/05/15 10:53:27;;;;;;;15.00;13.00;;;20.30;64.10;;;;;;4746248;30;20043;-81
2021/05/15 10:56:17;;;;;;;16.55;13.20;;;20.40;63.10;;;;;;4737257;30;20043;-80
2021/05/15 10:58:49;;;;;;;13.35;11.52;;;20.30;62.20;;;;;;4736967;30;20068;-81
2021/05/15 11:01:21;;;;;;;14.60;12.32;;;20.10;62.70;;;;;;4708825;30;20041;-81
2021/05/15 11:03:48;;;;;;;18.47;14.67;;;19.90;62.60;;;;;;4730820;30;20428;-82
2021/05/15 11:06:23;;;;;;;13.85;11.88;;;19.80;62.20;;;;;;4730439;30;20320;-80
2021/05/15 11:09:05;;;;;;;14.90;12.23;;;19.70;63.00;;;;;;4744501;30;20155;-80
2021/05/15 11:11:36;;;;;;;19.35;10.88;;;19.90;63.20;;;;;;4730849;30;20055;-81
2021/05/15 11:14:03;;;;;;;15.40;12.85;;;20.20;62.60;;;;;;4731313;30;20052;-81
2021/05/15 11:16:31;;;;;;;13.07;10.60;;;20.50;61.80;;;;;;4738807;30;20036;-81
2021/05/15 11:19:09;;;;;;;13.95;11.55;;;20.60;61.50;;;;;;4747766;30;20052;-81
2021/05/15 11:21:37;;;;;;;15.90;12.45;;;20.70;60.10;;;;;;4731486;30;20175;-81
2021/05/15 11:24:05;;;;;;;13.38;11.68;;;20.50;60.10;;;;;;4706720;30;20998;-81
2021/05/15 11:26:38;;;;;;;13.50;11.40;;;20.50;60.40;;;;;;4715669;30;20051;-80
2021/05/15 11:29:06;;;;;;;13.45;10.63;;;20.50;60.00;;;;;;4718229;30;20051;-81
2021/05/15 11:31:39;;;;;;;16.48;13.35;;;20.50;59.40;;;;;;4729885;30;20055;-81
2021/05/15 11:34:14;;;;;;;13.82;11.73;;;20.40;59.60;;;;;;4732171;30;20075;-80
2021/05/15 11:36:43;;;;;;;13.48;11.93;;;20.30;59.80;;;;;;4731657;30;20064;-80
2021/05/15 11:39:11;;;;;;;13.27;11.63;;;20.30;60.20;;;;;;4731452;30;20508;-80
2021/05/15 11:41:40;;;;;;;15.15;13.02;;;20.50;60.70;;;;;;4746709;30;20040;-81
2021/05/15 11:44:07;;;;;;;16.67;11.95;;;21.10;60.00;;;;;;4720112;30;20048;-81
2021/05/15 11:46:33;;;;;;;13.88;12.27;;;21.50;58.00;;;;;;4746527;30;20049;-81
2021/05/15 11:49:00;;;;;;;14.20;11.82;;;21.80;57.50;;;;;;4745985;30;20531;-82
2021/05/15 11:51:26;;;;;;;12.40;11.07;;;22.20;56.90;;;;;;4730319;30;20459;-82
2021/05/15 11:53:54;;;;;;;13.52;11.95;;;22.60;56.30;;;;;;4729807;30;20499;-78
2021/05/15 11:56:26;;;;;;;13.32;11.70;;;22.80;54.90;;;;;;4744827;30;20036;-81
2021/05/15 11:58:55;;;;;;;12.80;11.38;;;22.70;54.20;;;;;;4728776;30;20052;-81
2021/05/15 12:01:28;;;;;;;13.43;11.95;;;22.50;54.10;;;;;;4728322;30;20039;-81
2021/05/15 12:07:08;;;;;;;15.40;12.15;;;21.50;55.30;;;;;;4745388;30;20044;-83
2021/05/15 12:09:35;;;;;;;43.38;14.05;;;20.80;56.40;;;;;;4728758;30;20056;-82
2021/05/15 12:12:03;;;;;;;12.82;9.25;;;20.00;59.50;;;;;;4728845;30;20053;-83
2021/05/15 12:14:31;;;;;;;7.88;5.25;;;19.10;64.70;;;;;;4730182;30;20032;-86
2021/05/15 12:17:08;;;;;;;6.63;2.97;;;18.20;68.50;;;;;;4713234;30;20063;-84
2021/05/15 12:19:35;;;;;;;6.68;3.40;;;17.20;72.10;;;;;;4744131;30;20158;-80
2021/05/15 12:22:09;;;;;;;6.20;2.55;;;16.40;75.60;;;;;;4719075;30;20041;-81
2021/05/15 12:24:35;;;;;;;3.65;1.77;;;15.60;79.60;;;;;;4716014;30;20048;-80
2021/05/15 12:27:12;;;;;;;5.03;1.70;;;15.00;83.90;;;;;;4734070;30;20077;-81
2021/05/15 12:29:40;;;;;;;2.33;1.10;;;14.50;87.20;;;;;;4745137;30;20492;-81
2021/05/15 12:32:07;;;;;;;4.55;1.20;;;14.30;90.20;;;;;;4730064;30;20052;-80
2021/05/15 12:34:34;;;;;;;3.38;1.40;;;14.40;91.30;;;;;;4729239;30;20529;-80
2021/05/15 12:37:12;;;;;;;4.18;1.05;;;14.80;91.60;;;;;;4715136;30;20044;-80
2021/05/15 12:39:38;;;;;;;2.13;1.00;;;15.20;92.00;;;;;;4728962;30;20040;-80